createdAt,value
2017-12-01T00:00:12.742Z,9.10
2017-12-01T00:02:40.210Z,6.23
2017-12-01T00:05:07.700Z,6.73
2017-12-01T00:07:35.157Z,6.53
2017-12-01T00:10:02.682Z,7.33
2017-12-01T00:12:30.153Z,7.73
2017-12-01T00:14:57.625Z,8.07
2017-12-01T00:17:25.877Z,7.47
2017-12-01T00:19:53.348Z,8.13
2017-12-01T00:22:21.577Z,6.50
2017-12-01T00:24:49.064Z,8.37
2017-12-01T00:27:17.295Z,7.73
2017-12-01T00:29:44.782Z,7.03
2017-12-01T00:32:12.247Z,9.18
2017-12-01T00:34:39.708Z,7.57
2017-12-01T00:37:07.167Z,7.30
2017-12-01T00:39:35.406Z,7.03
2017-12-01T00:42:02.911Z,8.33
2017-12-01T00:44:30.364Z,8.53
2017-12-01T00:46:57.834Z,7.90
2017-12-01T00:49:26.059Z,9.37
2017-12-01T00:51:53.539Z,7.53
2017-12-01T00:54:21.012Z,11.40
2017-12-01T00:56:48.485Z,8.37
2017-12-01T00:59:16.731Z,8.20
2017-12-01T01:01:44.227Z,7.67
2017-12-01T01:04:12.448Z,8.37
2017-12-01T01:06:39.937Z,8.53
2017-12-01T01:09:07.424Z,10.30
2017-12-01T01:11:35.672Z,7.77
2017-12-01T01:14:03.134Z,7.87
2017-12-01T01:16:31.404Z,8.13
2017-12-01T01:18:58.880Z,8.70
2017-12-01T01:21:27.108Z,8.00
2017-12-01T01:23:54.587Z,8.13
2017-12-01T01:26:22.075Z,8.53
2017-12-01T01:28:50.312Z,7.30
2017-12-01T01:31:17.787Z,9.03
2017-12-01T01:33:45.247Z,7.63
2017-12-01T01:36:13.502Z,8.37
2017-12-01T01:38:40.966Z,7.70
2017-12-01T01:41:08.439Z,7.53
2017-12-01T01:43:36.676Z,11.50
2017-12-01T01:46:04.159Z,8.47
2017-12-01T01:48:33.451Z,8.27
2017-12-01T01:51:00.908Z,8.30
2017-12-01T01:53:28.394Z,7.33
2017-12-01T01:55:56.628Z,8.60
2017-12-01T01:58:24.099Z,8.27
2017-12-01T02:00:51.565Z,8.07
2017-12-01T02:03:19.060Z,9.17
2017-12-01T02:18:34.189Z,8.70
2017-12-01T02:21:01.664Z,8.90
2017-12-01T02:23:29.974Z,8.20
2017-12-01T02:25:57.445Z,9.07
2017-12-01T02:28:25.316Z,10.87
2017-12-01T02:30:52.800Z,9.80
2017-12-01T02:33:20.266Z,8.60
2017-12-01T02:35:48.519Z,9.57
2017-12-01T02:38:15.988Z,8.77
2017-12-01T02:40:43.474Z,8.40
2017-12-01T02:43:11.731Z,11.37
2017-12-01T02:45:39.208Z,10.53
2017-12-01T02:48:07.441Z,10.90
2017-12-01T02:50:34.913Z,11.63
2017-12-01T02:53:03.918Z,9.43
2017-12-01T02:55:31.395Z,11.20
2017-12-01T02:57:59.649Z,10.97
2017-12-01T03:00:27.112Z,10.03
2017-12-01T03:02:55.366Z,11.47
2017-12-01T03:05:22.870Z,11.00
2017-12-01T03:07:50.354Z,10.00
2017-12-01T03:10:17.813Z,13.17
2017-12-01T03:12:45.316Z,10.70
2017-12-01T03:15:13.554Z,10.70
2017-12-01T03:17:41.038Z,10.30
2017-12-01T03:20:08.563Z,11.07
2017-12-01T03:22:36.074Z,11.37
2017-12-01T03:25:04.313Z,10.37
2017-12-01T03:27:31.791Z,10.57
2017-12-01T03:29:59.277Z,12.23
2017-12-01T03:32:27.507Z,9.43
2017-12-01T03:34:55.008Z,11.47
2017-12-01T03:37:23.249Z,10.80
2017-12-01T03:39:50.732Z,11.50
2017-12-01T03:42:18.972Z,10.73
2017-12-01T03:44:46.448Z,11.70
2017-12-01T03:47:15.452Z,12.13
2017-12-01T03:49:42.940Z,11.23
2017-12-01T03:52:10.402Z,11.87
2017-12-01T03:54:37.884Z,12.43
2017-12-01T03:57:05.359Z,11.57
2017-12-01T03:59:33.619Z,10.63
2017-12-01T04:02:01.089Z,11.40
2017-12-01T04:04:28.563Z,10.57
2017-12-01T04:06:56.038Z,12.20
2017-12-01T04:09:25.221Z,12.23
2017-12-01T04:11:52.686Z,9.17
2017-12-01T04:14:20.174Z,11.47
2017-12-01T04:16:48.411Z,12.50
2017-12-01T04:19:15.876Z,11.10
2017-12-01T04:21:44.117Z,10.23
2017-12-01T04:24:11.593Z,10.70
2017-12-01T04:26:39.065Z,12.60
2017-12-01T04:29:06.563Z,12.27
2017-12-01T04:31:34.037Z,11.70
2017-12-01T04:34:01.513Z,11.13
2017-12-01T04:36:28.998Z,13.60
2017-12-01T04:38:56.465Z,11.93
2017-12-01T04:41:24.788Z,11.90
2017-12-01T04:43:52.299Z,16.83
2017-12-01T04:46:20.569Z,13.33
2017-12-01T04:48:48.064Z,16.10
2017-12-01T04:51:15.559Z,14.97
2017-12-01T04:53:43.047Z,13.90
2017-12-01T04:56:11.304Z,15.00
2017-12-01T04:58:38.775Z,12.17
2017-12-01T05:01:06.262Z,17.40
2017-12-01T05:03:33.720Z,14.23
2017-12-01T05:06:01.216Z,15.15
2017-12-01T05:08:28.699Z,14.93
2017-12-01T05:10:56.181Z,19.33
2017-12-01T05:13:24.436Z,19.53
2017-12-01T05:15:51.911Z,15.02
2017-12-01T05:18:20.145Z,14.73
2017-12-01T05:20:47.626Z,14.80
2017-12-01T05:23:15.122Z,14.53
2017-12-01T05:25:42.613Z,14.60
2017-12-01T05:28:10.076Z,14.80
2017-12-01T05:30:37.567Z,15.00
2017-12-01T05:33:05.841Z,13.53
2017-12-01T05:35:34.103Z,12.87
2017-12-01T05:38:01.593Z,10.20
2017-12-01T05:40:29.085Z,13.33
2017-12-01T05:42:56.572Z,13.30
2017-12-01T05:45:24.084Z,25.83
2017-12-01T05:47:51.567Z,16.40
2017-12-01T05:50:19.042Z,15.60
2017-12-01T05:52:46.565Z,13.87
2017-12-01T05:55:14.053Z,13.43
2017-12-01T05:57:41.531Z,14.80
2017-12-01T06:00:09.015Z,15.47
2017-12-01T06:02:36.549Z,14.83
2017-12-01T06:05:04.015Z,14.10
2017-12-01T06:07:32.281Z,11.70
2017-12-01T06:09:59.756Z,10.27
2017-12-01T06:12:28.000Z,12.60
2017-12-01T06:14:55.483Z,14.60
2017-12-01T06:17:23.728Z,10.47
2017-12-01T06:19:51.224Z,15.33
2017-12-01T06:22:19.505Z,18.00
2017-12-01T06:24:47.748Z,15.40
2017-12-01T06:27:15.232Z,14.30
2017-12-01T06:29:43.484Z,10.95
2017-12-01T06:32:10.959Z,14.60
2017-12-01T06:34:38.519Z,17.07
2017-12-01T06:37:06.788Z,11.57
2017-12-01T06:39:34.296Z,12.53
2017-12-01T06:42:01.791Z,18.10
2017-12-01T06:44:29.256Z,11.12
2017-12-01T06:46:57.517Z,12.03
2017-12-01T06:49:24.972Z,7.20
2017-12-01T06:51:52.450Z,8.13
2017-12-01T06:54:19.926Z,6.80
2017-12-01T06:56:48.167Z,8.90
2017-12-01T06:59:15.640Z,8.40
2017-12-01T07:01:43.119Z,8.57
2017-12-01T07:04:11.356Z,10.40
2017-12-01T07:06:38.824Z,5.75
2017-12-01T07:09:06.316Z,30.23
2017-12-01T07:11:33.787Z,12.07
2017-12-01T07:14:01.340Z,12.80
2017-12-01T07:16:28.803Z,10.33
2017-12-01T07:18:56.290Z,10.73
2017-12-01T07:21:23.769Z,11.07
2017-12-01T07:23:51.271Z,9.93
2017-12-01T07:26:30.705Z,7.10
2017-12-01T07:28:58.185Z,12.07
2017-12-01T07:31:25.656Z,17.43
2017-12-01T07:33:53.131Z,17.60
2017-12-01T07:36:20.622Z,19.03
2017-12-01T07:38:48.868Z,11.65
2017-12-01T07:41:16.328Z,10.20
2017-12-01T07:43:44.256Z,10.73
2017-12-01T07:46:11.724Z,6.47
2017-12-01T07:48:39.224Z,8.50
2017-12-01T07:51:08.203Z,6.60
2017-12-01T07:53:35.684Z,11.60
2017-12-01T07:56:03.940Z,5.03
2017-12-01T07:58:31.424Z,7.67
2017-12-01T08:00:59.659Z,7.80
2017-12-01T08:03:27.153Z,26.17
2017-12-01T08:05:55.386Z,24.07
2017-12-01T08:08:22.881Z,13.77
2017-12-01T08:10:51.447Z,14.70
2017-12-01T08:13:18.916Z,7.40
2017-12-01T08:15:59.602Z,5.73
2017-12-01T08:18:39.832Z,11.90
2017-12-01T08:21:07.315Z,8.82
2017-12-01T08:23:47.466Z,9.73
2017-12-01T08:26:15.713Z,18.37
2017-12-01T08:28:43.291Z,12.70
2017-12-01T08:31:10.762Z,11.17
2017-12-01T08:33:39.015Z,10.27
2017-12-01T08:36:06.493Z,8.83
2017-12-01T08:38:34.740Z,11.07
2017-12-01T08:41:02.258Z,14.53
2017-12-01T08:43:29.736Z,9.43
2017-12-01T08:45:57.199Z,10.13
2017-12-01T08:48:24.674Z,10.03
2017-12-01T08:50:52.293Z,24.00
2017-12-01T08:53:19.768Z,20.00
2017-12-01T08:55:47.276Z,19.20
2017-12-01T08:58:15.534Z,35.03
2017-12-01T09:00:43.855Z,65.90
2017-12-01T09:03:12.079Z,30.10
2017-12-01T09:05:39.578Z,25.70
2017-12-01T09:08:07.052Z,41.43
2017-12-01T09:10:34.549Z,17.87
2017-12-01T09:13:02.024Z,13.43
2017-12-01T09:15:29.508Z,15.83
2017-12-01T09:17:56.996Z,16.87
2017-12-01T09:20:24.492Z,17.03
2017-12-01T09:22:51.983Z,15.70
2017-12-01T09:25:19.486Z,13.20
2017-12-01T09:27:46.941Z,7.97
2017-12-01T09:30:14.436Z,9.93
2017-12-01T09:32:42.675Z,6.63
2017-12-01T09:35:10.145Z,7.67
2017-12-01T09:37:37.604Z,9.57
2017-12-01T09:40:05.097Z,10.10
2017-12-01T09:42:33.340Z,13.20
2017-12-01T09:45:00.863Z,13.27
2017-12-01T09:47:28.314Z,12.83
2017-12-01T09:49:55.794Z,13.60
2017-12-01T09:52:23.272Z,12.20
2017-12-01T09:54:50.769Z,14.47
2017-12-01T09:57:18.349Z,10.63
2017-12-01T09:59:45.816Z,9.23
2017-12-01T10:02:13.294Z,8.10
2017-12-01T10:04:40.746Z,7.90
2017-12-01T10:07:08.252Z,11.40
2017-12-01T10:09:36.484Z,8.07
2017-12-01T10:12:03.967Z,7.77
2017-12-01T10:14:31.436Z,9.40
2017-12-01T10:16:59.692Z,6.83
2017-12-01T10:19:27.162Z,7.53
2017-12-01T10:21:54.628Z,9.20
2017-12-01T10:24:22.859Z,8.30
2017-12-01T10:26:50.435Z,9.17
2017-12-01T10:29:17.907Z,11.20
2017-12-01T10:31:45.508Z,12.43
2017-12-01T10:34:13.004Z,10.37
2017-12-01T10:36:40.484Z,13.70
2017-12-01T10:39:07.949Z,7.47
2017-12-01T10:41:36.199Z,19.93
2017-12-01T10:44:03.772Z,12.50
2017-12-01T10:46:32.004Z,6.47
2017-12-01T10:48:59.475Z,5.90
2017-12-01T10:51:26.947Z,3.80
2017-12-01T10:53:54.405Z,7.70
2017-12-01T10:56:21.881Z,5.10
2017-12-01T10:58:49.490Z,8.33
2017-12-01T11:01:16.965Z,5.97
2017-12-01T11:03:44.435Z,6.60
2017-12-01T11:06:11.905Z,7.72
2017-12-01T11:08:40.286Z,7.20
2017-12-01T11:11:07.724Z,6.13
2017-12-01T11:13:35.210Z,6.73
2017-12-01T11:16:02.675Z,4.50
2017-12-01T11:18:30.933Z,7.70
2017-12-01T11:20:59.175Z,3.60
2017-12-01T11:23:26.676Z,3.43
2017-12-01T11:25:54.153Z,8.47
2017-12-01T11:28:22.377Z,2.83
2017-12-01T11:30:49.973Z,2.17
2017-12-01T11:33:17.430Z,2.57
2017-12-01T11:35:45.674Z,4.37
2017-12-01T11:38:13.165Z,6.75
2017-12-01T11:40:41.399Z,6.40
2017-12-01T11:43:08.879Z,5.43
2017-12-01T11:45:36.367Z,8.73
2017-12-01T11:48:04.628Z,7.27
2017-12-01T11:50:32.880Z,4.17
2017-12-01T11:53:00.344Z,6.60
2017-12-01T11:55:27.808Z,7.73
2017-12-01T11:57:55.279Z,4.87
2017-12-01T12:00:25.276Z,8.20
2017-12-01T12:02:54.262Z,11.83
2017-12-01T12:05:21.769Z,4.97
2017-12-01T12:07:49.232Z,5.90
2017-12-01T12:10:16.720Z,6.40
2017-12-01T12:12:44.200Z,6.57
2017-12-01T12:15:11.679Z,11.00
2017-12-01T12:17:39.916Z,4.53
2017-12-01T12:20:07.400Z,4.33
2017-12-01T12:22:34.868Z,4.87
2017-12-01T12:25:03.148Z,6.17
2017-12-01T12:27:31.437Z,7.63
2017-12-01T12:29:58.881Z,7.90
2017-12-01T12:32:27.326Z,5.50
2017-12-01T12:34:54.807Z,4.80
2017-12-01T12:37:22.292Z,6.80
2017-12-01T12:39:49.765Z,7.03
2017-12-01T12:42:17.252Z,10.70
2017-12-01T12:44:44.732Z,7.68
2017-12-01T12:47:12.232Z,6.73
2017-12-01T12:49:39.692Z,10.97
2017-12-01T12:52:07.189Z,7.00
2017-12-01T12:54:34.661Z,5.07
2017-12-01T12:57:02.162Z,6.20
2017-12-01T12:59:29.630Z,4.53
2017-12-01T13:01:57.100Z,4.73
2017-12-01T13:04:24.590Z,6.63
2017-12-01T13:06:52.059Z,6.40
2017-12-01T13:09:19.547Z,6.00
2017-12-01T13:11:47.779Z,6.67
2017-12-01T13:14:15.256Z,5.80
2017-12-01T13:16:43.523Z,10.20
2017-12-01T13:19:10.993Z,9.07
2017-12-01T13:21:39.240Z,11.13
2017-12-01T13:24:06.712Z,9.70
2017-12-01T13:26:34.182Z,9.83
2017-12-01T13:29:02.450Z,11.07
2017-12-01T13:31:29.924Z,11.00
2017-12-01T13:33:58.156Z,11.17
2017-12-01T13:36:25.620Z,6.67
2017-12-01T13:38:53.079Z,12.00
2017-12-01T13:41:20.563Z,9.03
2017-12-01T13:43:48.800Z,9.90
2017-12-01T13:46:16.270Z,9.97
2017-12-01T13:48:43.739Z,9.77
2017-12-01T13:51:11.213Z,10.55
2017-12-01T13:53:39.454Z,16.20
2017-12-01T13:56:06.912Z,31.50
2017-12-01T13:58:34.393Z,19.07
2017-12-01T14:01:01.868Z,11.60
2017-12-01T14:03:30.144Z,11.43
2017-12-01T14:05:58.388Z,14.60
2017-12-01T14:08:25.866Z,10.30
2017-12-01T14:10:53.338Z,17.53
2017-12-01T14:13:21.588Z,13.43
2017-12-01T14:15:49.071Z,13.50
2017-12-01T14:18:17.342Z,15.70
2017-12-01T14:20:45.580Z,15.77
2017-12-01T14:23:13.064Z,12.00
2017-12-01T14:25:40.537Z,13.97
2017-12-01T14:28:08.788Z,14.90
2017-12-01T14:30:36.240Z,13.63
2017-12-01T14:33:03.727Z,12.70
2017-12-01T14:35:31.984Z,13.27
2017-12-01T14:37:59.463Z,13.17
2017-12-01T14:40:27.716Z,12.57
2017-12-01T14:42:56.717Z,15.63
2017-12-01T14:45:24.952Z,10.13
2017-12-01T14:47:52.464Z,12.47
2017-12-01T14:50:20.682Z,11.13
2017-12-01T14:52:48.164Z,13.00
2017-12-01T14:55:15.641Z,13.07
2017-12-01T14:57:43.252Z,15.97
2017-12-01T15:00:10.733Z,11.73
2017-12-01T15:02:38.209Z,12.60
2017-12-01T15:05:06.459Z,10.20
2017-12-01T15:07:33.924Z,10.68
2017-12-01T15:10:01.428Z,11.30
2017-12-01T15:12:29.652Z,13.87
2017-12-01T15:14:57.132Z,12.07
2017-12-01T15:17:26.138Z,11.03
2017-12-01T15:19:54.385Z,11.40
2017-12-01T15:22:21.861Z,10.17
2017-12-01T15:24:50.149Z,12.97
2017-12-01T15:27:18.376Z,11.83
2017-12-01T15:29:45.862Z,17.90
2017-12-01T15:32:13.335Z,15.47
2017-12-01T15:34:41.592Z,14.70
2017-12-01T15:37:09.066Z,11.63
2017-12-01T15:39:36.553Z,13.77
2017-12-01T15:42:04.026Z,9.77
2017-12-01T15:44:31.504Z,10.07
2017-12-01T15:46:58.980Z,9.80
2017-12-01T15:49:26.498Z,10.20
2017-12-01T15:51:53.984Z,14.53
2017-12-01T15:54:21.458Z,23.80
2017-12-01T15:56:49.711Z,19.67
2017-12-01T15:59:17.205Z,18.53
2017-12-01T16:01:45.443Z,20.33
2017-12-01T16:04:12.924Z,15.63
2017-12-01T16:06:40.408Z,13.00
2017-12-01T16:09:08.669Z,17.13
2017-12-01T16:11:36.152Z,31.30
2017-12-01T16:14:04.396Z,47.40
2017-12-01T16:16:31.894Z,20.27
2017-12-01T16:18:59.362Z,29.50
2017-12-01T16:21:26.852Z,14.50
2017-12-01T16:23:55.332Z,15.40
2017-12-01T16:26:22.817Z,18.53
2017-12-01T16:28:50.300Z,21.07
2017-12-01T16:31:18.552Z,18.00
2017-12-01T16:33:46.024Z,15.23
2017-12-01T16:36:14.272Z,16.98
2017-12-01T16:38:41.749Z,18.30
2017-12-01T16:41:09.244Z,18.60
2017-12-01T16:43:36.723Z,16.20
2017-12-01T16:46:04.212Z,13.50
2017-12-01T16:48:34.218Z,14.10
2017-12-01T16:51:01.716Z,13.60
2017-12-01T16:53:29.948Z,16.67
2017-12-01T16:55:57.437Z,9.10
2017-12-01T16:58:25.696Z,18.23
2017-12-01T17:00:53.190Z,18.30
2017-12-01T17:03:20.660Z,16.60
2017-12-01T17:05:48.144Z,24.07
2017-12-01T17:08:15.680Z,30.27
2017-12-01T17:10:43.167Z,11.73
2017-12-01T17:13:10.641Z,12.83
2017-12-01T17:15:38.127Z,20.90
2017-12-01T17:18:05.621Z,20.67
2017-12-01T17:20:33.128Z,14.15
2017-12-01T17:23:01.427Z,12.10
2017-12-01T17:25:32.540Z,13.77
2017-12-01T17:27:59.999Z,12.57
2017-12-01T17:30:27.467Z,12.90
2017-12-01T17:32:55.713Z,15.47
2017-12-01T17:35:23.229Z,20.40
2017-12-01T17:37:50.792Z,27.70
2017-12-01T17:40:18.275Z,18.03
2017-12-01T17:42:45.757Z,18.07
2017-12-01T17:45:13.265Z,24.00
2017-12-01T17:47:40.747Z,25.40
2017-12-01T17:50:08.219Z,29.40
2017-12-01T17:52:36.300Z,16.77
2017-12-01T17:55:05.271Z,23.50
2017-12-01T17:57:32.867Z,19.70
2017-12-01T18:00:00.350Z,20.90
2017-12-01T18:02:27.847Z,26.73
2017-12-01T18:04:55.319Z,30.17
2017-12-01T18:07:23.588Z,25.47
2017-12-01T18:09:51.074Z,26.50
2017-12-01T18:12:18.559Z,26.33
2017-12-01T18:14:46.040Z,20.35
2017-12-01T18:17:13.525Z,23.27
2017-12-01T18:19:41.002Z,19.87
2017-12-01T18:22:08.481Z,18.70
2017-12-01T18:24:36.727Z,21.60
2017-12-01T18:27:04.223Z,29.17
2017-12-01T18:29:32.448Z,20.93
2017-12-01T18:31:59.928Z,22.13
2017-12-01T18:34:27.411Z,21.27
2017-12-01T18:36:54.908Z,26.85
2017-12-01T18:39:22.394Z,24.50
2017-12-01T18:41:50.641Z,28.60
2017-12-01T18:44:18.114Z,22.60
2017-12-01T18:46:45.667Z,20.30
2017-12-01T18:49:13.148Z,28.80
2017-12-01T18:51:40.616Z,20.57
2017-12-01T18:54:08.866Z,28.30
2017-12-01T18:56:36.331Z,36.43
2017-12-01T18:59:03.825Z,36.20
2017-12-01T19:01:32.059Z,26.20
2017-12-01T19:03:59.560Z,27.60
2017-12-01T19:06:27.049Z,22.93
2017-12-01T19:08:54.540Z,34.60
2017-12-01T19:11:22.791Z,27.73
2017-12-01T19:13:50.284Z,28.53
2017-12-01T19:16:17.745Z,30.47
2017-12-01T19:18:45.988Z,33.63
2017-12-01T19:21:13.475Z,31.27
2017-12-01T19:23:40.965Z,27.40
2017-12-01T19:26:08.460Z,29.67
2017-12-01T19:28:35.961Z,25.47
2017-12-01T19:31:04.193Z,30.70
2017-12-01T19:33:31.696Z,31.97
2017-12-01T19:35:59.928Z,21.10
2017-12-01T19:38:27.418Z,31.77
2017-12-01T19:40:54.898Z,28.10
2017-12-01T19:43:23.149Z,30.77
2017-12-01T19:45:50.625Z,31.97
2017-12-01T19:48:18.880Z,36.93
2017-12-01T19:50:46.343Z,29.27
2017-12-01T19:53:14.748Z,28.20
2017-12-01T19:55:42.225Z,26.43
2017-12-01T19:58:09.703Z,26.00
2017-12-01T20:00:37.188Z,24.47
2017-12-01T20:03:06.188Z,26.83
2017-12-01T20:05:34.444Z,26.33
2017-12-01T20:08:02.854Z,30.43
2017-12-01T20:10:31.083Z,24.30
2017-12-01T20:12:58.583Z,35.07
2017-12-01T20:15:26.868Z,25.77
2017-12-01T20:17:55.120Z,28.53
2017-12-01T20:20:22.580Z,27.42
2017-12-01T20:22:50.058Z,24.97
2017-12-01T20:25:18.304Z,30.80
2017-12-01T20:27:45.799Z,23.80
2017-12-01T20:30:14.048Z,27.10
2017-12-01T20:32:41.576Z,23.30
2017-12-01T20:35:09.191Z,28.37
2017-12-01T20:37:38.339Z,32.40
2017-12-01T20:40:05.838Z,25.30
2017-12-01T20:42:34.116Z,24.63
2017-12-01T20:45:02.371Z,25.47
2017-12-01T20:47:29.844Z,27.80
2017-12-01T20:49:58.119Z,26.60
2017-12-01T20:52:26.359Z,25.53
2017-12-01T20:54:53.855Z,23.47
2017-12-01T20:57:22.097Z,22.97
2017-12-01T20:59:49.578Z,29.00
2017-12-01T21:02:17.894Z,27.80
2017-12-01T21:04:45.378Z,24.77
2017-12-01T21:07:12.910Z,24.73
2017-12-01T21:09:40.384Z,26.10
2017-12-01T21:12:07.872Z,29.70
2017-12-01T21:14:35.373Z,27.47
2017-12-01T21:17:02.874Z,31.43
2017-12-01T21:19:30.342Z,35.80
2017-12-01T21:21:57.866Z,29.57
2017-12-01T21:24:25.327Z,36.37
2017-12-01T21:26:52.815Z,31.20
2017-12-01T21:29:20.303Z,35.63
2017-12-01T21:31:49.388Z,33.30
2017-12-01T21:34:17.635Z,33.93
2017-12-01T21:36:45.119Z,32.87
2017-12-01T21:39:12.610Z,31.50
2017-12-01T21:41:40.148Z,32.90
2017-12-01T21:44:08.387Z,33.67
2017-12-01T21:46:35.880Z,33.50
2017-12-01T21:49:03.356Z,36.37
2017-12-01T21:51:30.836Z,37.60
2017-12-01T21:53:58.305Z,34.60
2017-12-01T21:56:25.797Z,32.80
2017-12-01T21:58:53.281Z,32.90
2017-12-01T22:01:20.773Z,32.77
2017-12-01T22:03:48.267Z,34.50
2017-12-01T22:06:16.510Z,29.30
2017-12-01T22:08:43.985Z,32.80
2017-12-01T22:11:11.489Z,31.83
2017-12-01T22:13:39.736Z,31.30
2017-12-01T22:16:07.236Z,32.07
2017-12-01T22:18:34.703Z,29.20
2017-12-01T22:21:02.212Z,32.57
2017-12-01T22:23:30.465Z,32.33
2017-12-01T22:25:57.931Z,32.00
2017-12-01T22:28:25.411Z,30.87
2017-12-01T22:30:53.669Z,25.90
2017-12-01T22:33:21.147Z,32.60
2017-12-01T22:35:49.411Z,27.63
2017-12-01T22:38:16.888Z,28.20
2017-12-01T22:40:45.120Z,36.07
2017-12-01T22:43:12.605Z,32.90
2017-12-01T22:45:40.071Z,34.93
2017-12-01T22:48:07.569Z,31.37
2017-12-01T22:50:35.057Z,32.33
2017-12-01T22:53:02.549Z,31.00
2017-12-01T22:55:30.029Z,34.17
2017-12-01T22:57:57.512Z,30.67
2017-12-01T23:00:24.992Z,32.50
2017-12-01T23:02:52.475Z,30.83
2017-12-01T23:05:19.944Z,32.53
2017-12-01T23:07:48.192Z,29.33
2017-12-01T23:10:16.432Z,33.27
2017-12-01T23:12:43.905Z,33.80
2017-12-01T23:15:11.379Z,36.90
2017-12-01T23:17:38.856Z,30.90
2017-12-01T23:20:06.334Z,37.00
2017-12-01T23:22:34.598Z,34.17
2017-12-01T23:25:02.824Z,34.20
2017-12-01T23:27:30.325Z,38.47
2017-12-01T23:29:57.810Z,39.33
2017-12-01T23:32:25.288Z,33.87
2017-12-01T23:34:52.772Z,39.40
2017-12-01T23:37:20.274Z,38.27
2017-12-01T23:39:48.534Z,40.27
2017-12-01T23:42:16.016Z,43.80
2017-12-01T23:44:43.494Z,44.17
2017-12-01T23:47:10.980Z,42.63
2017-12-01T23:49:38.448Z,45.83
2017-12-01T23:52:05.924Z,39.10
2017-12-01T23:54:34.160Z,41.20
2017-12-01T23:57:01.625Z,45.40
2017-12-01T23:59:29.117Z,46.70
